< < Back
Terminal Aerodrome Forecast


Current Version              Previous Versions:   1  2  3  4  5  6  7  8  9  

Terminal Aerodrome Forecast

963
FTUS42 KFFC 252300
TAFMCN
TAF
KMCN 252339Z 2600/2624 32008KT 5SM -TSRA BKN035CB
     FM260100 26005KT P6SM VCSH BKN040
     FM260300 VRB03KT P6SM SCT050 SCT080
     FM260900 00000KT 3SM BR FEW060
     FM261400 26006KT P6SM FEW045=



Latest METAR

400
SAUS80 KWBC 261500 RRA
MTRMCN
METAR KMCN 261453Z 32005KT 10SM CLR 30/22 A3006 RMK AO2 SLP173 T03000217
51008


USA.gov is the U.S. government's official web portal to all federal, state and local government web resources and services.